Time;durP1;ratioP1;P1;durP2;ratioP2;P2;SDS_P1;SDS_P2;PMS_P1;PMS_P2;Temp;Humidity;BMP_temperature;BMP_pressure;BME280_temperature;BME280_humidity;BME280_pressure;Samples;Min_cycle;Max_cycle;Signal;HPM_P1;HPM_P2
2023/10/17 00:01:19;;;;;;;;;;;6.40;99.90;;;;;;4860913;29;19931;-86
2023/10/17 00:03:47;;;;;;;;;;;6.40;99.90;;;;;;4861092;29;19924;-86
2023/10/17 00:06:14;;;;;;;;;;;6.40;99.90;;;;;;4859736;29;19931;-86
2023/10/17 00:08:41;;;;;;;;;;;6.30;99.90;;;;;;4859631;29;19928;-87
2023/10/17 00:11:07;;;;;;;;;;;6.40;99.90;;;;;;4859737;29;19924;-86
2023/10/17 00:13:38;;;;;;;;;;;6.40;99.90;;;;;;4860176;29;19971;-87
2023/10/17 00:16:12;;;;;;;;;;;6.40;99.90;;;;;;4861069;29;20023;-86
2023/10/17 00:18:38;;;;;;;;;;;6.40;99.90;;;;;;4860482;29;19924;-87
2023/10/17 00:21:23;;;;;;;;;;;6.40;99.90;;;;;;4862678;29;19931;-86
2023/10/17 00:23:50;;;;;;;;;;;6.40;99.90;;;;;;4863769;29;20427;-86
2023/10/17 00:26:18;;;;;;;;;;;6.30;99.90;;;;;;4863071;29;19924;-86
2023/10/17 00:28:51;;;;;;;;;;;6.30;99.90;;;;;;4863411;29;19928;-87
2023/10/17 00:31:20;;;;;;;;;;;6.20;99.90;;;;;;4863667;29;19951;-86
2023/10/17 00:33:49;;;;;;;;;;;6.20;99.90;;;;;;4863248;29;19924;-87
2023/10/17 00:36:16;;;;;;;;;;;6.20;99.90;;;;;;4864125;29;20394;-85
2023/10/17 00:38:45;;;;;;;;;;;6.20;99.90;;;;;;4863514;29;19924;-87
2023/10/17 00:41:23;;;;;;;;;;;6.20;99.90;;;;;;4864140;29;19924;-86
2023/10/17 00:43:48;;;;;;;;;;;6.20;99.90;;;;;;4863932;29;19991;-87
2023/10/17 00:46:16;;;;;;;;;;;6.10;99.90;;;;;;4864030;29;20431;-85
2023/10/17 00:48:42;;;;;;;;;;;6.10;99.90;;;;;;4864416;29;19924;-85
2023/10/17 00:51:08;;;;;;;;;;;6.10;99.90;;;;;;4865133;29;19924;-85
2023/10/17 00:53:40;;;;;;;;;;;6.10;99.90;;;;;;4863691;29;19931;-86
2023/10/17 00:56:07;;;;;;;;;;;6.00;99.90;;;;;;4863231;29;19924;-86
2023/10/17 00:58:33;;;;;;;;;;;5.90;99.90;;;;;;4864304;29;20022;-86
2023/10/17 01:01:09;;;;;;;;;;;5.90;99.90;;;;;;4864358;29;19924;-86
2023/10/17 01:03:42;;;;;;;;;;;5.90;99.90;;;;;;4862774;29;20014;-86
2023/10/17 01:06:23;;;;;;;;;;;5.90;99.90;;;;;;4864369;29;19924;-87
2023/10/17 01:08:49;;;;;;;;;;;5.80;99.90;;;;;;4847473;29;20382;-85
2023/10/17 01:11:38;;;;;;;;;;;5.80;99.90;;;;;;4864698;29;19952;-85
2023/10/17 01:14:02;;;;;;;;;;;5.70;99.90;;;;;;4862361;29;19930;-88
2023/10/17 01:16:33;;;;;;;;;;;5.70;99.90;;;;;;4863656;29;19971;-86
2023/10/17 01:19:04;;;;;;;;;;;5.80;99.90;;;;;;4862911;29;19977;-85
2023/10/17 01:21:30;;;;;;;;;;;5.80;99.90;;;;;;4863716;29;20001;-86
2023/10/17 01:23:56;;;;;;;;;;;5.80;99.90;;;;;;4862485;29;19924;-85
2023/10/17 01:26:23;;;;;;;;;;;5.70;99.90;;;;;;4862115;29;19924;-85
2023/10/17 01:28:52;;;;;;;;;;;5.70;99.90;;;;;;4862298;29;20379;-85
2023/10/17 01:31:24;;;;;;;;;;;5.70;99.90;;;;;;4862369;29;19924;-86
2023/10/17 01:33:54;;;;;;;;;;;5.70;99.90;;;;;;4848214;29;19940;-86
2023/10/17 01:36:21;;;;;;;;;;;5.70;99.90;;;;;;4862070;29;20271;-86
2023/10/17 01:38:49;;;;;;;;;;;5.70;99.90;;;;;;4863151;29;20435;-86
2023/10/17 01:41:15;;;;;;;;;;;5.70;99.90;;;;;;4862313;29;19924;-85
2023/10/17 01:43:41;;;;;;;;;;;5.70;99.90;;;;;;4863205;29;19924;-85
2023/10/17 01:46:15;;;;;;;;;;;5.70;99.90;;;;;;4861953;29;19931;-86
2023/10/17 01:48:46;;;;;;;;;;;5.70;99.90;;;;;;4862882;29;20023;-85
2023/10/17 01:51:14;;;;;;;;;;;5.70;99.90;;;;;;4861850;29;20360;-86
2023/10/17 01:53:40;;;;;;;;;;;5.70;99.90;;;;;;4862926;29;19943;-86
2023/10/17 01:56:13;;;;;;;;;;;5.70;99.90;;;;;;4846810;29;19924;-85
2023/10/17 01:58:45;;;;;;;;;;;5.70;99.90;;;;;;4862914;29;19960;-85
2023/10/17 02:01:14;;;;;;;;;;;5.70;99.90;;;;;;4846733;29;20388;-86
2023/10/17 02:03:40;;;;;;;;;;;5.70;99.90;;;;;;4862908;29;20359;-86
2023/10/17 02:06:15;;;;;;;;;;;5.70;99.90;;;;;;4862485;29;20279;-85
2023/10/17 02:08:41;;;;;;;;;;;5.70;99.90;;;;;;4862878;29;20386;-86
2023/10/17 02:11:12;;;;;;;;;;;5.80;99.90;;;;;;4862409;29;19930;-85
2023/10/17 02:13:40;;;;;;;;;;;5.80;99.90;;;;;;4862718;29;19931;-86
2023/10/17 02:16:06;;;;;;;;;;;5.70;99.90;;;;;;4862541;29;19932;-85
2023/10/17 02:18:32;;;;;;;;;;;5.70;99.90;;;;;;4861686;29;19928;-85
2023/10/17 02:21:04;;;;;;;;;;;5.70;99.90;;;;;;4861464;29;20280;-86
2023/10/17 02:23:35;;;;;;;;;;;5.70;99.90;;;;;;4861742;29;19928;-86
2023/10/17 02:26:03;;;;;;;;;;;5.70;99.90;;;;;;4862758;29;19928;-86
2023/10/17 02:28:29;;;;;;;;;;;5.70;99.90;;;;;;4862215;29;19924;-85
2023/10/17 02:30:58;;;;;;;;;;;5.70;99.90;;;;;;4862284;29;20019;-86
2023/10/17 02:33:28;;;;;;;;;;;5.60;99.90;;;;;;4860962;29;19924;-88
2023/10/17 02:36:05;;;;;;;;;;;5.60;99.90;;;;;;4860844;29;19976;-85
2023/10/17 02:38:31;;;;;;;;;;;5.60;99.90;;;;;;4861762;29;20019;-86
2023/10/17 02:40:57;;;;;;;;;;;5.50;99.90;;;;;;4861994;29;20018;-85
2023/10/17 02:43:22;;;;;;;;;;;5.50;99.90;;;;;;4845277;29;19924;-85
2023/10/17 02:45:49;;;;;;;;;;;5.40;99.90;;;;;;4862277;29;19931;-86
2023/10/17 02:48:25;;;;;;;;;;;5.40;99.90;;;;;;4860889;29;19924;-85
2023/10/17 02:51:01;;;;;;;;;;;5.30;99.90;;;;;;4860600;29;20006;-87
2023/10/17 02:53:30;;;;;;;;;;;5.20;99.90;;;;;;4861636;29;20245;-85
2023/10/17 02:55:56;;;;;;;;;;;5.10;99.90;;;;;;4861821;29;19949;-86
2023/10/17 02:58:22;;;;;;;;;;;5.10;99.90;;;;;;4860766;29;20360;-85
2023/10/17 03:00:47;;;;;;;;;;;5.00;99.90;;;;;;4860740;29;19930;-88
2023/10/17 03:03:13;;;;;;;;;;;5.10;99.90;;;;;;4862185;29;20297;-86
2023/10/17 03:05:40;;;;;;;;;;;5.00;99.90;;;;;;4860843;29;20015;-87
2023/10/17 03:08:10;;;;;;;;;;;5.00;99.90;;;;;;4860486;29;20067;-86
2023/10/17 03:10:39;;;;;;;;;;;5.00;99.90;;;;;;4861521;29;19930;-86
2023/10/17 03:13:06;;;;;;;;;;;4.90;99.90;;;;;;4861071;29;19924;-86
2023/10/17 03:15:37;;;;;;;;;;;4.90;99.90;;;;;;4861466;29;19925;-89
2023/10/17 03:18:02;;;;;;;;;;;4.80;99.90;;;;;;4862087;29;19924;-86
2023/10/17 03:20:36;;;;;;;;;;;4.80;99.90;;;;;;4863995;29;19949;-87
2023/10/17 03:23:03;;;;;;;;;;;4.70;99.90;;;;;;4861081;29;19990;-85
2023/10/17 03:25:36;;;;;;;;;;;4.70;99.90;;;;;;4861903;29;19984;-86
2023/10/17 03:28:04;;;;;;;;;;;4.70;99.90;;;;;;4861034;29;20354;-86
2023/10/17 03:30:29;;;;;;;;;;;4.70;99.90;;;;;;4845716;29;19930;-85
2023/10/17 03:35:25;;;;;;;;;;;4.60;99.90;;;;;;4862204;29;20371;-85
2023/10/17 03:37:54;;;;;;;;;;;4.60;99.90;;;;;;4860278;29;19931;-86
2023/10/17 03:40:29;;;;;;;;;;;4.60;99.90;;;;;;4861113;29;20332;-86
2023/10/17 03:42:55;;;;;;;;;;;4.70;99.90;;;;;;4861130;29;19931;-86
2023/10/17 03:45:26;;;;;;;;;;;4.70;99.90;;;;;;4861338;29;20368;-86
2023/10/17 03:47:59;;;;;;;;;;;4.70;99.90;;;;;;4861124;29;19924;-85
2023/10/17 03:50:34;;;;;;;;;;;4.60;99.90;;;;;;4861280;29;19924;-85
2023/10/17 03:53:05;;;;;;;;;;;4.60;99.90;;;;;;4860819;29;19924;-86
2023/10/17 03:55:42;;;;;;;;;;;4.50;99.90;;;;;;4863724;29;19947;-86
2023/10/17 04:00:56;;;;;;;;;;;4.60;99.90;;;;;;4864510;29;19923;-85
2023/10/17 04:03:31;;;;;;;;;;;4.50;99.90;;;;;;4865056;29;19980;-86
2023/10/17 04:06:41;;;;;;;;;;;4.50;99.90;;;;;;4864325;29;19925;-86
2023/10/17 04:08:49;;;;;;;;;;;4.60;99.90;;;;;;4856049;29;20444;-85
2023/10/17 04:11:25;;;;;;;;;;;4.70;99.90;;;;;;4863999;29;19935;-85
2023/10/17 04:14:00;;;;;;;;;;;4.60;99.90;;;;;;4864745;29;19935;-85
2023/10/17 04:18:57;;;;;;;;;;;4.60;99.90;;;;;;4863625;29;19924;-86
2023/10/17 04:21:36;;;;;;;;;;;4.60;99.90;;;;;;4864427;29;19924;-85
2023/10/17 04:24:05;;;;;;;;;;;4.60;99.90;;;;;;4850051;29;19924;-86
2023/10/17 04:26:34;;;;;;;;;;;4.60;99.90;;;;;;4863468;29;19928;-86
2023/10/17 04:29:21;;;;;;;;;;;4.50;99.90;;;;;;4864211;29;20233;-87
2023/10/17 04:31:47;;;;;;;;;;;4.50;99.90;;;;;;4864197;29;19967;-85
2023/10/17 04:34:21;;;;;;;;;;;4.50;99.90;;;;;;4864933;29;19967;-85
2023/10/17 04:36:51;;;;;;;;;;;4.40;99.90;;;;;;4863554;29;19924;-86
2023/10/17 04:44:19;;;;;;;;;;;4.30;99.90;;;;;;4863941;29;19988;-88
2023/10/17 04:46:51;;;;;;;;;;;4.40;99.90;;;;;;4864135;29;19947;-85
2023/10/17 04:49:21;;;;;;;;;;;4.40;99.90;;;;;;4864253;29;19924;-85
2023/10/17 04:52:02;;;;;;;;;;;4.40;99.90;;;;;;4864040;29;19995;-85
2023/10/17 04:56:59;;;;;;;;;;;4.20;99.90;;;;;;4862805;29;20252;-90
2023/10/17 05:00:10;;;;;;;;;;;4.20;99.90;;;;;;4865663;29;19924;-86
2023/10/17 05:07:28;;;;;;;;;;;4.00;99.90;;;;;;4862405;29;20334;-86
2023/10/17 06:18:27;;;;;;;;;;;3.90;99.90;;;;;;4861970;29;20329;-85
2023/10/17 06:28:49;;;;;;;;;;;4.10;99.90;;;;;;4862165;29;19924;-84
2023/10/17 06:34:02;;;;;;;;;;;4.00;99.90;;;;;;4861568;29;20007;-85
2023/10/17 06:36:28;;;;;;;;;;;4.10;99.90;;;;;;4862301;29;20249;-85
2023/10/17 06:38:54;;;;;;;;;;;4.20;99.90;;;;;;4861519;29;19931;-86
2023/10/17 06:41:38;;;;;;;;;;;4.20;99.90;;;;;;4861167;29;19928;-87
2023/10/17 06:44:10;;;;;;;;;;;4.20;99.90;;;;;;4862000;29;19924;-86
2023/10/17 06:46:58;;;;;;;;;;;4.20;99.90;;;;;;4861584;29;20374;-85
2023/10/17 06:52:19;;;;;;;;;;;4.30;99.90;;;;;;4862947;29;19930;-88
2023/10/17 06:54:52;;;;;;;;;;;4.40;99.90;;;;;;4861259;29;19989;-85
2023/10/17 06:57:19;;;;;;;;;;;4.50;99.90;;;;;;4846097;29;19924;-85
2023/10/17 06:59:51;;;;;;;;;;;4.50;99.90;;;;;;4860778;29;19931;-87
2023/10/17 07:02:31;;;;;;;;;;;4.50;99.90;;;;;;4861124;29;19975;-86
2023/10/17 07:04:59;;;;;;;;;;;4.60;99.90;;;;;;4847348;29;19924;-86
2023/10/17 07:07:41;;;;;;;;;;;4.70;99.90;;;;;;4862524;29;20003;-87
2023/10/17 07:13:12;;;;;;;;;;;4.70;99.90;;;;;;4862045;29;19931;-89
2023/10/17 07:15:39;;;;;;;;;;;4.80;99.90;;;;;;4845929;29;19977;-88
2023/10/17 07:21:15;;;;;;;;;;;4.90;99.90;;;;;;4848172;29;20086;-89
2023/10/17 07:23:42;;;;;;;;;;;5.00;99.90;;;;;;4845320;29;19935;-87
2023/10/17 07:26:11;;;;;;;;;;;5.00;99.90;;;;;;4860978;29;19924;-87
2023/10/17 07:28:42;;;;;;;;;;;5.00;99.90;;;;;;4831085;29;19924;-88
2023/10/17 07:31:11;;;;;;;;;;;5.10;99.90;;;;;;4862526;29;19924;-87
2023/10/17 07:33:37;;;;;;;;;;;5.20;99.90;;;;;;4861311;29;20351;-88
2023/10/17 07:36:03;;;;;;;;;;;5.30;99.90;;;;;;4860512;29;20394;-87
2023/10/17 07:38:29;;;;;;;;;;;5.30;99.90;;;;;;4860598;29;19931;-88
2023/10/17 07:41:13;;;;;;;;;;;5.50;99.90;;;;;;4860384;29;20019;-87
2023/10/17 07:43:44;;;;;;;;;;;5.60;99.90;;;;;;4860990;29;20018;-87
2023/10/17 07:46:16;;;;;;;;;;;5.60;99.90;;;;;;4861070;29;19924;-87
2023/10/17 07:48:51;;;;;;;;;;;5.70;99.90;;;;;;4860482;29;20355;-88
2023/10/17 07:51:17;;;;;;;;;;;5.70;99.90;;;;;;4861358;29;19942;-86
2023/10/17 07:53:46;;;;;;;;;;;5.90;99.90;;;;;;4861586;29;19924;-87
2023/10/17 07:56:20;;;;;;;;;;;5.90;99.90;;;;;;4860714;29;19964;-86
2023/10/17 07:58:46;;;;;;;;;;;5.90;99.90;;;;;;4861043;29;19924;-87
2023/10/17 08:01:15;;;;;;;;;;;6.00;99.90;;;;;;4844794;29;19976;-90
2023/10/17 08:03:49;;;;;;;;;;;6.20;99.90;;;;;;4860550;29;19935;-86
2023/10/17 08:06:20;;;;;;;;;;;6.10;99.90;;;;;;4860352;29;19924;-88
2023/10/17 08:08:46;;;;;;;;;;;6.20;99.90;;;;;;4860568;29;20003;-87
2023/10/17 08:11:27;;;;;;;;;;;6.30;99.90;;;;;;4845832;29;19975;-86
2023/10/17 08:13:54;;;;;;;;;;;6.30;99.90;;;;;;4859805;29;20403;-86
2023/10/17 08:16:28;;;;;;;;;;;6.40;99.90;;;;;;4846330;29;19931;-85
2023/10/17 08:24:26;;;;;;;;;;;6.60;99.90;;;;;;4862671;29;19930;-84
2023/10/17 08:27:13;;;;;;;;;;;6.70;99.90;;;;;;4862189;29;19971;-86
2023/10/17 08:29:38;;;;;;;;;;;6.80;99.90;;;;;;4860150;29;19972;-86
2023/10/17 08:32:20;;;;;;;;;;;6.90;99.90;;;;;;4861210;29;19928;-84
2023/10/17 08:34:59;;;;;;;;;;;6.90;99.90;;;;;;4861100;29;20356;-88
2023/10/17 08:37:30;;;;;;;;;;;7.10;99.90;;;;;;4861589;29;19924;-86
2023/10/17 08:39:59;;;;;;;;;;;7.20;99.90;;;;;;4859948;29;19924;-86
2023/10/17 08:42:31;;;;;;;;;;;7.30;99.90;;;;;;4863054;29;19924;-85
2023/10/17 08:44:57;;;;;;;;;;;7.40;99.90;;;;;;4863313;29;19931;-83
2023/10/17 08:47:30;;;;;;;;;;;7.50;99.90;;;;;;4863718;29;19995;-83
2023/10/17 08:50:00;;;;;;;;;;;7.50;99.90;;;;;;4864283;29;19971;-85
2023/10/17 08:52:27;;;;;;;;;;;7.60;99.90;;;;;;4847536;29;19924;-84
2023/10/17 08:54:53;;;;;;;;;;;7.60;99.90;;;;;;4863184;29;19924;-85
2023/10/17 08:57:19;;;;;;;;;;;7.70;99.90;;;;;;4864206;29;20022;-84
2023/10/17 09:02:17;;;;;;;;;;;7.90;99.90;;;;;;4863713;29;19930;-85
2023/10/17 09:04:43;;;;;;;;;;;8.00;99.90;;;;;;4863860;29;19924;-87
2023/10/17 09:07:18;;;;;;;;;;;8.00;99.90;;;;;;4847421;29;19924;-86
2023/10/17 09:09:47;;;;;;;;;;;8.10;99.90;;;;;;4862410;29;19980;-84
2023/10/17 09:12:21;;;;;;;;;;;8.10;99.90;;;;;;4862939;29;19949;-83
2023/10/17 09:14:52;;;;;;;;;;;8.20;99.90;;;;;;4863940;29;19982;-84
2023/10/17 09:17:30;;;;;;;;;;;8.30;99.90;;;;;;4864785;29;19989;-85
2023/10/17 09:20:05;;;;;;;;;;;8.40;99.90;;;;;;4863761;29;19976;-84
2023/10/17 09:22:30;;;;;;;;;;;8.50;99.90;;;;;;4863606;29;19928;-86
2023/10/17 09:24:59;;;;;;;;;;;8.90;99.90;;;;;;4864367;29;19924;-84
2023/10/17 09:27:27;;;;;;;;;;;9.40;99.90;;;;;;4862558;29;20371;-88
2023/10/17 09:29:58;;;;;;;;;;;10.00;99.90;;;;;;4847525;29;19924;-86
2023/10/17 09:32:30;;;;;;;;;;;11.00;99.90;;;;;;4863992;29;19972;-85
2023/10/17 09:34:56;;;;;;;;;;;11.90;99.90;;;;;;4863670;29;19924;-85
2023/10/17 09:37:22;;;;;;;;;;;12.70;99.90;;;;;;4863479;29;20010;-85
2023/10/17 09:39:48;;;;;;;;;;;13.40;99.90;;;;;;4863393;29;19924;-84
2023/10/17 09:42:14;;;;;;;;;;;13.80;99.90;;;;;;4863571;29;19925;-86
2023/10/17 09:44:40;;;;;;;;;;;14.20;99.90;;;;;;4862011;29;19931;-86
2023/10/17 09:47:08;;;;;;;;;;;14.60;99.90;;;;;;4863070;29;20348;-85
2023/10/17 09:49:43;;;;;;;;;;;14.90;99.90;;;;;;4861775;29;19924;-87
2023/10/17 09:52:10;;;;;;;;;;;15.10;99.90;;;;;;4861276;29;19925;-85
2023/10/17 09:54:40;;;;;;;;;;;15.00;99.90;;;;;;4862982;29;20051;-84
2023/10/17 09:57:14;;;;;;;;;;;14.60;99.90;;;;;;4863581;29;19933;-84
2023/10/17 09:59:51;;;;;;;;;;;14.20;99.90;;;;;;4862879;29;19932;-86
2023/10/17 10:02:20;;;;;;;;;;;13.80;99.90;;;;;;4861823;29;20391;-86
2023/10/17 10:04:46;;;;;;;;;;;13.30;99.90;;;;;;4846690;29;19928;-88
2023/10/17 10:07:22;;;;;;;;;;;12.90;99.90;;;;;;4862435;29;20344;-87
2023/10/17 10:09:48;;;;;;;;;;;12.40;99.90;;;;;;4861185;29;19928;-84
2023/10/17 10:12:14;;;;;;;;;;;12.20;99.90;;;;;;4862516;29;20039;-85
2023/10/17 10:14:42;;;;;;;;;;;11.90;99.90;;;;;;4862633;29;19935;-85
2023/10/17 10:17:09;;;;;;;;;;;11.70;99.90;;;;;;4861376;29;19984;-86
2023/10/17 10:19:40;;;;;;;;;;;11.70;99.90;;;;;;4862385;29;19928;-85
2023/10/17 10:22:07;;;;;;;;;;;11.60;99.90;;;;;;4861608;29;19935;-84
2023/10/17 10:24:34;;;;;;;;;;;11.60;99.90;;;;;;4861645;29;19932;-85
2023/10/17 10:29:53;;;;;;;;;;;11.50;99.90;;;;;;4862525;29;19928;-85
2023/10/17 10:32:25;;;;;;;;;;;11.50;99.90;;;;;;4863309;29;20026;-87
2023/10/17 10:34:51;;;;;;;;;;;11.50;99.90;;;;;;4863387;29;19939;-84
2023/10/17 10:37:17;;;;;;;;;;;11.60;99.90;;;;;;4861480;29;19928;-84
2023/10/17 10:40:01;;;;;;;;;;;11.50;99.90;;;;;;4861741;29;19936;-84
2023/10/17 10:42:39;;;;;;;;;;;11.50;99.90;;;;;;4862256;29;19993;-85
2023/10/17 10:45:05;;;;;;;;;;;11.50;99.90;;;;;;4863138;29;19985;-84
2023/10/17 10:47:31;;;;;;;;;;;11.40;99.90;;;;;;4848218;29;19936;-83
2023/10/17 10:50:01;;;;;;;;;;;11.40;99.90;;;;;;4862377;29;19928;-83
2023/10/17 10:52:26;;;;;;;;;;;11.30;99.90;;;;;;4862478;29;19935;-85
2023/10/17 10:54:59;;;;;;;;;;;11.30;99.90;;;;;;4862164;29;20291;-87
2023/10/17 10:57:28;;;;;;;;;;;11.20;99.90;;;;;;4861998;29;19936;-85
2023/10/17 10:59:54;;;;;;;;;;;11.20;99.90;;;;;;4861969;29;19928;-85
2023/10/17 11:02:20;;;;;;;;;;;11.10;99.90;;;;;;4861179;29;19928;-84
2023/10/17 11:04:47;;;;;;;;;;;11.10;99.90;;;;;;4861171;29;19932;-85
2023/10/17 11:07:22;;;;;;;;;;;11.10;99.90;;;;;;4861578;29;19928;-84
2023/10/17 11:10:03;;;;;;;;;;;11.10;99.90;;;;;;4861691;29;20380;-85
2023/10/17 11:12:28;;;;;;;;;;;11.10;99.90;;;;;;4861916;29;20438;-82
2023/10/17 11:15:09;;;;;;;;;;;11.10;99.90;;;;;;4861296;29;19979;-84
2023/10/17 11:17:35;;;;;;;;;;;11.20;99.90;;;;;;4861629;29;19932;-89
2023/10/17 11:20:00;;;;;;;;;;;11.20;99.90;;;;;;4861693;29;19996;-87
2023/10/17 11:22:28;;;;;;;;;;;11.20;99.90;;;;;;4860514;29;19928;-88
2023/10/17 11:24:55;;;;;;;;;;;11.30;99.90;;;;;;4861551;29;19936;-84
2023/10/17 11:27:23;;;;;;;;;;;11.40;99.90;;;;;;4861268;29;20442;-84
2023/10/17 11:29:51;;;;;;;;;;;11.40;99.90;;;;;;4862281;29;20295;-85
2023/10/17 11:32:17;;;;;;;;;;;11.50;99.90;;;;;;4860814;29;20371;-84
2023/10/17 11:34:48;;;;;;;;;;;11.60;99.90;;;;;;4861607;29;19971;-83
2023/10/17 11:37:18;;;;;;;;;;;11.60;99.90;;;;;;4861732;29;19935;-90
2023/10/17 11:39:49;;;;;;;;;;;11.70;99.90;;;;;;4862521;29;19928;-86
2023/10/17 11:42:22;;;;;;;;;;;11.80;99.90;;;;;;4861596;29;19992;-84
2023/10/17 11:44:48;;;;;;;;;;;11.90;99.90;;;;;;4860876;29;19928;-86
2023/10/17 11:47:22;;;;;;;;;;;11.90;99.90;;;;;;4861543;29;19978;-85
2023/10/17 11:49:49;;;;;;;;;;;12.00;99.90;;;;;;4862336;29;19928;-84
2023/10/17 11:52:15;;;;;;;;;;;12.00;99.90;;;;;;4860906;29;19988;-84
2023/10/17 11:55:00;;;;;;;;;;;12.10;99.90;;;;;;4860299;29;20081;-85
2023/10/17 11:57:27;;;;;;;;;;;12.10;99.90;;;;;;4860195;29;19928;-85
2023/10/17 11:59:53;;;;;;;;;;;12.10;99.90;;;;;;4860451;29;19928;-85
2023/10/17 12:02:18;;;;;;;;;;;12.10;99.90;;;;;;4861798;29;19935;-88
2023/10/17 12:04:44;;;;;;;;;;;12.10;99.90;;;;;;4860546;29;19936;-87
2023/10/17 12:07:09;;;;;;;;;;;12.10;99.90;;;;;;4861382;29;19928;-86
2023/10/17 12:09:35;;;;;;;;;;;12.10;99.90;;;;;;4860690;29;19935;-86
2023/10/17 12:12:02;;;;;;;;;;;12.20;99.90;;;;;;4860390;29;20376;-87
2023/10/17 12:14:28;;;;;;;;;;;12.30;99.90;;;;;;4860857;29;19929;-87
2023/10/17 12:16:54;;;;;;;;;;;12.30;99.90;;;;;;4862907;29;20444;-87
2023/10/17 12:19:26;;;;;;;;;;;12.30;99.90;;;;;;4848853;29;19982;-86
2023/10/17 12:21:55;;;;;;;;;;;12.30;99.90;;;;;;4864007;29;19928;-87
2023/10/17 12:24:28;;;;;;;;;;;12.30;99.90;;;;;;4848202;29;19932;-86
2023/10/17 12:26:55;;;;;;;;;;;12.30;99.90;;;;;;4864070;29;19932;-85
2023/10/17 12:29:25;;;;;;;;;;;12.30;99.90;;;;;;4865542;29;20031;-83
2023/10/17 12:31:53;;;;;;;;;;;12.40;99.90;;;;;;4865559;29;20280;-85
2023/10/17 12:34:19;;;;;;;;;;;12.40;99.90;;;;;;4863806;29;20372;-84
2023/10/17 12:36:46;;;;;;;;;;;12.40;99.90;;;;;;4864433;29;19935;-84
2023/10/17 12:39:12;;;;;;;;;;;12.40;99.90;;;;;;4863633;29;20011;-86
2023/10/17 12:41:37;;;;;;;;;;;12.40;99.90;;;;;;4864309;29;20023;-88
2023/10/17 12:44:03;;;;;;;;;;;12.40;99.90;;;;;;4864702;29;19928;-85
2023/10/17 12:46:29;;;;;;;;;;;12.40;99.90;;;;;;4864565;29;20380;-87
2023/10/17 12:48:54;;;;;;;;;;;12.40;99.90;;;;;;4864953;29;19928;-87
2023/10/17 12:51:21;;;;;;;;;;;12.60;99.90;;;;;;4847733;29;20019;-85
2023/10/17 12:53:47;;;;;;;;;;;12.60;99.90;;;;;;4863371;29;20322;-86
2023/10/17 12:56:13;;;;;;;;;;;12.60;99.90;;;;;;4864315;29;20028;-86
2023/10/17 12:58:38;;;;;;;;;;;12.60;99.90;;;;;;4863314;29;19976;-88
2023/10/17 13:01:04;;;;;;;;;;;12.60;99.90;;;;;;4864061;29;19938;-85
2023/10/17 13:03:33;;;;;;;;;;;12.60;99.90;;;;;;4863867;29;20014;-85
2023/10/17 13:06:02;;;;;;;;;;;12.60;99.90;;;;;;4863321;29;19932;-87
2023/10/17 13:08:28;;;;;;;;;;;12.60;99.90;;;;;;4863013;29;19936;-87
2023/10/17 13:10:55;;;;;;;;;;;12.60;99.90;;;;;;4863731;29;19928;-86
2023/10/17 13:13:21;;;;;;;;;;;12.60;99.90;;;;;;4863344;29;20019;-86
2023/10/17 13:15:47;;;;;;;;;;;12.60;99.90;;;;;;4864329;29;19928;-82
2023/10/17 13:18:14;;;;;;;;;;;12.60;99.90;;;;;;4865071;29;19951;-89
2023/10/17 13:20:47;;;;;;;;;;;12.60;99.90;;;;;;4863399;29;20359;-86
2023/10/17 13:23:12;;;;;;;;;;;12.60;99.90;;;;;;4863216;29;19928;-87
2023/10/17 13:25:41;;;;;;;;;;;12.60;99.90;;;;;;4847948;29;19952;-86
2023/10/17 13:28:07;;;;;;;;;;;12.60;99.90;;;;;;4862821;29;19928;-87
2023/10/17 13:30:33;;;;;;;;;;;12.60;99.90;;;;;;4863679;29;19954;-87
2023/10/17 13:32:58;;;;;;;;;;;12.60;99.90;;;;;;4863577;29;19951;-88
2023/10/17 13:35:24;;;;;;;;;;;12.60;99.90;;;;;;4862946;29;20276;-86
2023/10/17 13:37:53;;;;;;;;;;;12.60;99.90;;;;;;4862567;29;20015;-86
2023/10/17 13:40:19;;;;;;;;;;;12.50;99.90;;;;;;4862585;29;19928;-85
2023/10/17 13:42:46;;;;;;;;;;;12.40;99.90;;;;;;4862848;29;19936;-86
2023/10/17 13:45:13;;;;;;;;;;;12.50;99.90;;;;;;4847685;29;19928;-86
2023/10/17 13:47:42;;;;;;;;;;;12.50;99.90;;;;;;4861935;29;19975;-85
2023/10/17 13:50:13;;;;;;;;;;;12.50;99.90;;;;;;4861984;29;19928;-85
2023/10/17 13:52:42;;;;;;;;;;;12.40;99.90;;;;;;4862552;29;19993;-86
2023/10/17 13:55:09;;;;;;;;;;;12.50;99.90;;;;;;4863063;29;19957;-92
2023/10/17 13:57:35;;;;;;;;;;;12.50;99.90;;;;;;4863611;29;19929;-85
2023/10/17 14:00:02;;;;;;;;;;;12.50;99.90;;;;;;4863023;29;19955;-86
2023/10/17 14:02:27;;;;;;;;;;;12.50;99.90;;;;;;4863441;29;19928;-85
2023/10/17 14:04:53;;;;;;;;;;;12.60;99.90;;;;;;4862837;29;19935;-88
2023/10/17 14:07:18;;;;;;;;;;;12.50;99.90;;;;;;4863005;29;19928;-88
2023/10/17 14:09:45;;;;;;;;;;;12.50;99.90;;;;;;4863087;29;19964;-86
2023/10/17 14:12:11;;;;;;;;;;;12.50;99.90;;;;;;4862830;29;19988;-87
2023/10/17 14:14:37;;;;;;;;;;;12.50;99.90;;;;;;4861684;29;20020;-88
2023/10/17 14:17:03;;;;;;;;;;;12.40;99.90;;;;;;4831877;29;19934;-86
2023/10/17 14:25:00;;;;;;;;;;;12.40;99.90;;;;;;4863509;29;20085;-89
2023/10/17 14:27:32;;;;;;;;;;;12.20;99.90;;;;;;4861780;29;20427;-87
2023/10/17 14:30:03;;;;;;;;;;;12.20;99.90;;;;;;4862418;29;19992;-86
2023/10/17 14:32:29;;;;;;;;;;;12.20;99.90;;;;;;4862678;29;19928;-86
2023/10/17 14:34:56;;;;;;;;;;;12.10;99.90;;;;;;4862476;29;19928;-87
2023/10/17 14:37:23;;;;;;;;;;;12.10;99.90;;;;;;4861740;29;19932;-87
2023/10/17 14:39:50;;;;;;;;;;;12.00;99.90;;;;;;4845667;29;19928;-87
2023/10/17 14:42:19;;;;;;;;;;;12.00;99.90;;;;;;4861487;29;19929;-87
2023/10/17 14:44:52;;;;;;;;;;;12.00;99.90;;;;;;4861434;29;19935;-86
2023/10/17 14:47:17;;;;;;;;;;;11.90;99.90;;;;;;4861409;29;20380;-85
2023/10/17 14:49:46;;;;;;;;;;;11.90;99.90;;;;;;4861240;29;19935;-86
2023/10/17 14:52:13;;;;;;;;;;;11.80;99.90;;;;;;4862068;29;20307;-85
2023/10/17 14:54:39;;;;;;;;;;;11.80;99.90;;;;;;4861248;29;19928;-84
2023/10/17 14:57:08;;;;;;;;;;;11.70;99.90;;;;;;4862096;29;20368;-85
2023/10/17 14:59:40;;;;;;;;;;;11.70;99.90;;;;;;4846787;29;19983;-87
2023/10/17 15:02:07;;;;;;;;;;;11.70;99.90;;;;;;4876404;29;19928;-87
2023/10/17 15:04:33;;;;;;;;;;;11.60;99.90;;;;;;4862517;29;19939;-85
2023/10/17 15:06:59;;;;;;;;;;;11.60;99.90;;;;;;4845522;29;19935;-87
2023/10/17 15:09:26;;;;;;;;;;;11.50;99.90;;;;;;4844950;29;19928;-85
2023/10/17 15:11:53;;;;;;;;;;;11.40;99.90;;;;;;4860989;29;19928;-85
2023/10/17 15:14:20;;;;;;;;;;;11.40;99.90;;;;;;4863410;29;20011;-92
2023/10/17 15:16:46;;;;;;;;;;;11.30;99.90;;;;;;4851114;29;19935;-88
2023/10/17 15:19:11;;;;;;;;;;;11.20;99.90;;;;;;4865046;29;20428;-89
2023/10/17 15:21:37;;;;;;;;;;;11.20;99.90;;;;;;4864441;29;19981;-87
2023/10/17 15:24:03;;;;;;;;;;;11.10;99.90;;;;;;4849299;29;19928;-86
2023/10/17 15:26:28;;;;;;;;;;;11.10;99.90;;;;;;4848075;29;19980;-89
2023/10/17 15:28:54;;;;;;;;;;;11.00;99.90;;;;;;4861735;29;19952;-87
2023/10/17 15:31:20;;;;;;;;;;;10.90;99.90;;;;;;4861961;29;20300;-87
2023/10/17 15:33:46;;;;;;;;;;;10.80;99.90;;;;;;4860699;29;20446;-85
2023/10/17 15:36:12;;;;;;;;;;;10.80;99.90;;;;;;4862371;29;19928;-92
2023/10/17 15:38:41;;;;;;;;;;;10.70;99.90;;;;;;4845335;29;19928;-92
2023/10/17 15:41:14;;;;;;;;;;;10.60;99.90;;;;;;4832369;29;19932;-88
2023/10/17 15:43:40;;;;;;;;;;;10.50;99.90;;;;;;4861593;29;19971;-89
2023/10/17 15:46:06;;;;;;;;;;;10.50;99.90;;;;;;4862817;29;19935;-85
2023/10/17 15:48:31;;;;;;;;;;;10.40;99.90;;;;;;4860774;29;20372;-86
2023/10/17 15:50:57;;;;;;;;;;;10.40;99.90;;;;;;4861729;29;19929;-86
2023/10/17 15:53:23;;;;;;;;;;;10.30;99.90;;;;;;4865658;29;19929;-87
2023/10/17 15:55:55;;;;;;;;;;;10.30;99.90;;;;;;4865316;29;19970;-86
2023/10/17 15:58:26;;;;;;;;;;;10.10;99.90;;;;;;4865835;29;19932;-86
2023/10/17 16:00:52;;;;;;;;;;;10.10;99.90;;;;;;4865187;29;19979;-86
2023/10/17 16:03:19;;;;;;;;;;;10.00;99.90;;;;;;4864277;29;19979;-85
2023/10/17 16:05:45;;;;;;;;;;;9.90;99.90;;;;;;4863917;29;19936;-86
2023/10/17 16:08:11;;;;;;;;;;;9.90;99.90;;;;;;4864026;29;20356;-85
2023/10/17 16:10:38;;;;;;;;;;;9.80;99.90;;;;;;4864528;29;19928;-86
2023/10/17 16:13:04;;;;;;;;;;;9.70;99.90;;;;;;4864136;29;19928;-85
2023/10/17 16:15:30;;;;;;;;;;;9.60;99.90;;;;;;4849131;29;19936;-87
2023/10/17 16:17:56;;;;;;;;;;;9.60;99.90;;;;;;4864732;29;19928;-84
2023/10/17 16:20:21;;;;;;;;;;;9.50;99.90;;;;;;4864882;29;19929;-81
2023/10/17 16:22:47;;;;;;;;;;;9.40;99.90;;;;;;4865097;29;20386;-86
2023/10/17 16:25:13;;;;;;;;;;;9.30;99.90;;;;;;4864464;29;19934;-86
2023/10/17 16:27:39;;;;;;;;;;;9.20;99.90;;;;;;4864659;29;19928;-85
2023/10/17 16:30:10;;;;;;;;;;;9.10;99.90;;;;;;4864601;29;20303;-85
2023/10/17 16:32:36;;;;;;;;;;;9.00;99.90;;;;;;4864290;29;19981;-84
2023/10/17 16:35:04;;;;;;;;;;;8.90;99.90;;;;;;4864528;29;20321;-85
2023/10/17 16:37:31;;;;;;;;;;;8.80;99.90;;;;;;4864986;29;19984;-86
2023/10/17 16:39:57;;;;;;;;;;;8.70;99.90;;;;;;4864449;29;19983;-86